sensor_id;sensor_type;location;lat;lon;timestamp;P1;durP1;ratioP1;P2;durP2;ratioP2
6131;SDS011;3097;42.692;23.278;2023-08-07T00:02:23;2.77;;;2.30;;
6131;SDS011;3097;42.692;23.278;2023-08-07T00:04:48;2.33;;;2.13;;
6131;SDS011;3097;42.692;23.278;2023-08-07T00:07:14;2.70;;;2.50;;
6131;SDS011;3097;42.692;23.278;2023-08-07T00:09:39;2.93;;;2.40;;
6131;SDS011;3097;42.692;23.278;2023-08-07T00:12:04;2.17;;;2.07;;
6131;SDS011;3097;42.692;23.278;2023-08-07T00:14:30;2.80;;;2.60;;
6131;SDS011;3097;42.692;23.278;2023-08-07T00:16:55;3.70;;;3.27;;
6131;SDS011;3097;42.692;23.278;2023-08-07T00:19:21;3.60;;;3.37;;
6131;SDS011;3097;42.692;23.278;2023-08-07T00:21:46;3.60;;;3.30;;
6131;SDS011;3097;42.692;23.278;2023-08-07T00:24:12;2.90;;;2.70;;
6131;SDS011;3097;42.692;23.278;2023-08-07T00:26:37;3.23;;;3.00;;
6131;SDS011;3097;42.692;23.278;2023-08-07T00:29:03;2.40;;;2.30;;
6131;SDS011;3097;42.692;23.278;2023-08-07T00:31:28;1.90;;;1.80;;
6131;SDS011;3097;42.692;23.278;2023-08-07T00:33:56;2.20;;;2.10;;
6131;SDS011;3097;42.692;23.278;2023-08-07T00:36:22;2.60;;;2.10;;
6131;SDS011;3097;42.692;23.278;2023-08-07T00:38:48;2.17;;;1.97;;
6131;SDS011;3097;42.692;23.278;2023-08-07T00:41:18;3.03;;;2.10;;
6131;SDS011;3097;42.692;23.278;2023-08-07T00:43:44;2.23;;;2.13;;
6131;SDS011;3097;42.692;23.278;2023-08-07T00:46:09;1.83;;;1.73;;
6131;SDS011;3097;42.692;23.278;2023-08-07T00:48:35;2.30;;;2.20;;
6131;SDS011;3097;42.692;23.278;2023-08-07T00:51:01;2.50;;;2.30;;
6131;SDS011;3097;42.692;23.278;2023-08-07T00:53:27;2.10;;;2.00;;
6131;SDS011;3097;42.692;23.278;2023-08-07T00:55:52;2.07;;;1.97;;
6131;SDS011;3097;42.692;23.278;2023-08-07T00:58:18;2.20;;;2.10;;
6131;SDS011;3097;42.692;23.278;2023-08-07T01:00:43;2.13;;;2.03;;
6131;SDS011;3097;42.692;23.278;2023-08-07T01:03:10;2.30;;;2.20;;
6131;SDS011;3097;42.692;23.278;2023-08-07T01:05:37;2.80;;;2.60;;
6131;SDS011;3097;42.692;23.278;2023-08-07T01:08:03;3.27;;;3.03;;
6131;SDS011;3097;42.692;23.278;2023-08-07T01:13:16;3.83;;;3.53;;
6131;SDS011;3097;42.692;23.278;2023-08-07T01:15:47;3.67;;;3.37;;
6131;SDS011;3097;42.692;23.278;2023-08-07T01:18:17;3.17;;;2.97;;
6131;SDS011;3097;42.692;23.278;2023-08-07T01:20:43;3.43;;;3.23;;
6131;SDS011;3097;42.692;23.278;2023-08-07T01:23:08;3.20;;;3.00;;
6131;SDS011;3097;42.692;23.278;2023-08-07T01:25:34;2.60;;;2.40;;
6131;SDS011;3097;42.692;23.278;2023-08-07T01:28:06;2.90;;;2.70;;
6131;SDS011;3097;42.692;23.278;2023-08-07T01:30:42;3.27;;;2.90;;
6131;SDS011;3097;42.692;23.278;2023-08-07T01:33:32;2.80;;;2.60;;
6131;SDS011;3097;42.692;23.278;2023-08-07T01:36:04;2.23;;;2.13;;
6131;SDS011;3097;42.692;23.278;2023-08-07T01:38:32;3.20;;;3.00;;
6131;SDS011;3097;42.692;23.278;2023-08-07T01:40:58;3.23;;;3.00;;
6131;SDS011;3097;42.692;23.278;2023-08-07T01:43:26;2.80;;;2.60;;
6131;SDS011;3097;42.692;23.278;2023-08-07T01:45:52;3.27;;;3.07;;
6131;SDS011;3097;42.692;23.278;2023-08-07T01:48:17;3.07;;;2.87;;
6131;SDS011;3097;42.692;23.278;2023-08-07T01:50:43;3.07;;;2.87;;
6131;SDS011;3097;42.692;23.278;2023-08-07T01:53:08;3.50;;;3.27;;
6131;SDS011;3097;42.692;23.278;2023-08-07T01:55:34;3.13;;;2.80;;
6131;SDS011;3097;42.692;23.278;2023-08-07T01:57:59;3.10;;;2.90;;
6131;SDS011;3097;42.692;23.278;2023-08-07T02:00:25;3.30;;;3.10;;
6131;SDS011;3097;42.692;23.278;2023-08-07T02:02:50;2.93;;;2.73;;
6131;SDS011;3097;42.692;23.278;2023-08-07T02:05:16;3.07;;;2.87;;
6131;SDS011;3097;42.692;23.278;2023-08-07T02:07:42;3.37;;;3.10;;
6131;SDS011;3097;42.692;23.278;2023-08-07T02:10:08;3.37;;;3.17;;
6131;SDS011;3097;42.692;23.278;2023-08-07T02:12:33;3.20;;;2.90;;
6131;SDS011;3097;42.692;23.278;2023-08-07T02:14:59;3.07;;;2.87;;
6131;SDS011;3097;42.692;23.278;2023-08-07T02:17:25;3.10;;;2.90;;
6131;SDS011;3097;42.692;23.278;2023-08-07T02:19:52;2.90;;;2.70;;
6131;SDS011;3097;42.692;23.278;2023-08-07T02:22:18;2.93;;;2.73;;
6131;SDS011;3097;42.692;23.278;2023-08-07T02:24:43;4.03;;;3.00;;
6131;SDS011;3097;42.692;23.278;2023-08-07T02:27:09;2.63;;;2.43;;
6131;SDS011;3097;42.692;23.278;2023-08-07T02:29:34;3.27;;;3.03;;
6131;SDS011;3097;42.692;23.278;2023-08-07T02:32:01;3.17;;;2.97;;
6131;SDS011;3097;42.692;23.278;2023-08-07T02:34:28;3.20;;;3.00;;
6131;SDS011;3097;42.692;23.278;2023-08-07T02:36:53;2.40;;;2.23;;
6131;SDS011;3097;42.692;23.278;2023-08-07T02:39:19;2.50;;;2.40;;
6131;SDS011;3097;42.692;23.278;2023-08-07T02:41:45;3.10;;;2.90;;
6131;SDS011;3097;42.692;23.278;2023-08-07T02:44:10;2.90;;;2.70;;
6131;SDS011;3097;42.692;23.278;2023-08-07T02:46:36;2.73;;;2.53;;
6131;SDS011;3097;42.692;23.278;2023-08-07T02:49:01;4.70;;;2.63;;
6131;SDS011;3097;42.692;23.278;2023-08-07T02:51:27;3.40;;;3.20;;
6131;SDS011;3097;42.692;23.278;2023-08-07T02:53:52;3.40;;;3.20;;
6131;SDS011;3097;42.692;23.278;2023-08-07T02:56:18;3.20;;;3.00;;
6131;SDS011;3097;42.692;23.278;2023-08-07T02:58:43;3.10;;;2.90;;
6131;SDS011;3097;42.692;23.278;2023-08-07T03:01:09;3.23;;;3.03;;
6131;SDS011;3097;42.692;23.278;2023-08-07T03:03:34;3.17;;;2.97;;
6131;SDS011;3097;42.692;23.278;2023-08-07T03:06:00;3.50;;;3.30;;
6131;SDS011;3097;42.692;23.278;2023-08-07T03:08:26;3.30;;;3.00;;
6131;SDS011;3097;42.692;23.278;2023-08-07T03:10:52;3.30;;;3.10;;
6131;SDS011;3097;42.692;23.278;2023-08-07T03:13:19;3.33;;;3.13;;
6131;SDS011;3097;42.692;23.278;2023-08-07T03:15:44;2.87;;;2.67;;
6131;SDS011;3097;42.692;23.278;2023-08-07T03:18:10;3.57;;;3.20;;
6131;SDS011;3097;42.692;23.278;2023-08-07T03:20:38;3.40;;;3.20;;
6131;SDS011;3097;42.692;23.278;2023-08-07T03:23:03;3.20;;;3.00;;
6131;SDS011;3097;42.692;23.278;2023-08-07T03:25:29;3.47;;;3.27;;
6131;SDS011;3097;42.692;23.278;2023-08-07T03:27:54;3.40;;;3.10;;
6131;SDS011;3097;42.692;23.278;2023-08-07T03:30:20;3.80;;;3.60;;
6131;SDS011;3097;42.692;23.278;2023-08-07T03:32:45;4.50;;;3.50;;
6131;SDS011;3097;42.692;23.278;2023-08-07T03:35:11;3.97;;;3.67;;
6131;SDS011;3097;42.692;23.278;2023-08-07T03:37:36;3.77;;;3.47;;
6131;SDS011;3097;42.692;23.278;2023-08-07T03:40:02;3.47;;;3.23;;
6131;SDS011;3097;42.692;23.278;2023-08-07T03:42:27;3.90;;;3.60;;
6131;SDS011;3097;42.692;23.278;2023-08-07T03:44:53;4.33;;;4.03;;
6131;SDS011;3097;42.692;23.278;2023-08-07T03:47:18;8.73;;;3.90;;
6131;SDS011;3097;42.692;23.278;2023-08-07T03:49:44;3.80;;;3.50;;
6131;SDS011;3097;42.692;23.278;2023-08-07T03:52:09;3.93;;;3.63;;
6131;SDS011;3097;42.692;23.278;2023-08-07T03:54:35;3.73;;;3.43;;
6131;SDS011;3097;42.692;23.278;2023-08-07T03:57:00;3.97;;;3.67;;
6131;SDS011;3097;42.692;23.278;2023-08-07T03:59:26;4.30;;;4.00;;
6131;SDS011;3097;42.692;23.278;2023-08-07T04:01:51;3.80;;;3.60;;
6131;SDS011;3097;42.692;23.278;2023-08-07T04:04:17;5.37;;;4.97;;
6131;SDS011;3097;42.692;23.278;2023-08-07T04:06:42;5.67;;;5.13;;
6131;SDS011;3097;42.692;23.278;2023-08-07T04:09:09;4.50;;;4.20;;
6131;SDS011;3097;42.692;23.278;2023-08-07T04:11:35;3.73;;;3.43;;
6131;SDS011;3097;42.692;23.278;2023-08-07T04:14:01;4.47;;;3.80;;
6131;SDS011;3097;42.692;23.278;2023-08-07T04:16:27;3.80;;;3.50;;
6131;SDS011;3097;42.692;23.278;2023-08-07T04:18:52;4.20;;;3.70;;
6131;SDS011;3097;42.692;23.278;2023-08-07T04:21:18;3.80;;;3.50;;
6131;SDS011;3097;42.692;23.278;2023-08-07T04:23:43;3.50;;;3.23;;
6131;SDS011;3097;42.692;23.278;2023-08-07T04:26:09;3.20;;;3.00;;
6131;SDS011;3097;42.692;23.278;2023-08-07T04:28:34;3.50;;;2.80;;
6131;SDS011;3097;42.692;23.278;2023-08-07T04:31:00;2.93;;;2.73;;
6131;SDS011;3097;42.692;23.278;2023-08-07T04:33:25;3.27;;;3.07;;
6131;SDS011;3097;42.692;23.278;2023-08-07T04:35:51;3.97;;;2.93;;
6131;SDS011;3097;42.692;23.278;2023-08-07T04:38:16;3.13;;;2.93;;
6131;SDS011;3097;42.692;23.278;2023-08-07T04:40:49;3.17;;;2.97;;
6131;SDS011;3097;42.692;23.278;2023-08-07T04:43:15;2.50;;;2.30;;
6131;SDS011;3097;42.692;23.278;2023-08-07T04:45:41;3.10;;;2.80;;
6131;SDS011;3097;42.692;23.278;2023-08-07T04:48:08;3.80;;;2.80;;
6131;SDS011;3097;42.692;23.278;2023-08-07T04:50:33;2.57;;;2.37;;
6131;SDS011;3097;42.692;23.278;2023-08-07T04:52:59;2.77;;;2.57;;
6131;SDS011;3097;42.692;23.278;2023-08-07T04:55:25;2.90;;;2.70;;
6131;SDS011;3097;42.692;23.278;2023-08-07T04:57:50;2.73;;;2.53;;
6131;SDS011;3097;42.692;23.278;2023-08-07T05:00:19;2.70;;;2.60;;
6131;SDS011;3097;42.692;23.278;2023-08-07T05:02:45;2.60;;;2.50;;
6131;SDS011;3097;42.692;23.278;2023-08-07T05:05:10;2.10;;;2.00;;
6131;SDS011;3097;42.692;23.278;2023-08-07T05:07:36;2.77;;;2.57;;
6131;SDS011;3097;42.692;23.278;2023-08-07T05:10:04;2.30;;;2.20;;
6131;SDS011;3097;42.692;23.278;2023-08-07T05:12:30;2.60;;;2.43;;
6131;SDS011;3097;42.692;23.278;2023-08-07T05:14:55;3.17;;;2.40;;
6131;SDS011;3097;42.692;23.278;2023-08-07T05:17:21;2.60;;;2.43;;
6131;SDS011;3097;42.692;23.278;2023-08-07T05:19:47;2.53;;;2.33;;
6131;SDS011;3097;42.692;23.278;2023-08-07T05:22:12;2.70;;;2.60;;
6131;SDS011;3097;42.692;23.278;2023-08-07T05:24:38;2.40;;;2.30;;
6131;SDS011;3097;42.692;23.278;2023-08-07T05:27:09;2.80;;;2.30;;
6131;SDS011;3097;42.692;23.278;2023-08-07T05:29:35;2.15;;;2.05;;
6131;SDS011;3097;42.692;23.278;2023-08-07T05:32:08;3.80;;;2.25;;
6131;SDS011;3097;42.692;23.278;2023-08-07T05:34:35;2.90;;;2.50;;
6131;SDS011;3097;42.692;23.278;2023-08-07T05:37:00;3.15;;;2.35;;
6131;SDS011;3097;42.692;23.278;2023-08-07T05:39:25;2.70;;;2.50;;
6131;SDS011;3097;42.692;23.278;2023-08-07T05:41:51;1.90;;;1.80;;
6131;SDS011;3097;42.692;23.278;2023-08-07T05:44:18;2.10;;;2.00;;
6131;SDS011;3097;42.692;23.278;2023-08-07T05:46:44;2.10;;;2.00;;
6131;SDS011;3097;42.692;23.278;2023-08-07T05:49:10;2.00;;;1.90;;
6131;SDS011;3097;42.692;23.278;2023-08-07T05:51:36;2.30;;;2.20;;
6131;SDS011;3097;42.692;23.278;2023-08-07T05:54:02;2.25;;;2.15;;
6131;SDS011;3097;42.692;23.278;2023-08-07T05:56:28;2.53;;;2.42;;
6131;SDS011;3097;42.692;23.278;2023-08-07T05:58:56;2.30;;;2.20;;
6131;SDS011;3097;42.692;23.278;2023-08-07T06:01:21;2.28;;;2.17;;
6131;SDS011;3097;42.692;23.278;2023-08-07T06:03:47;2.17;;;2.08;;
6131;SDS011;3097;42.692;23.278;2023-08-07T06:06:12;2.40;;;2.17;;
6131;SDS011;3097;42.692;23.278;2023-08-07T06:08:38;3.85;;;2.40;;
6131;SDS011;3097;42.692;23.278;2023-08-07T06:11:03;2.30;;;2.20;;
6131;SDS011;3097;42.692;23.278;2023-08-07T06:13:30;2.50;;;2.40;;
6131;SDS011;3097;42.692;23.278;2023-08-07T06:15:56;2.20;;;1.90;;
6131;SDS011;3097;42.692;23.278;2023-08-07T06:18:21;3.83;;;1.98;;
6131;SDS011;3097;42.692;23.278;2023-08-07T06:20:47;2.05;;;1.95;;
6131;SDS011;3097;42.692;23.278;2023-08-07T06:23:12;2.00;;;1.88;;
6131;SDS011;3097;42.692;23.278;2023-08-07T06:25:40;3.17;;;2.92;;
6131;SDS011;3097;42.692;23.278;2023-08-07T06:28:06;2.08;;;1.98;;
6131;SDS011;3097;42.692;23.278;2023-08-07T06:30:31;2.92;;;2.00;;
6131;SDS011;3097;42.692;23.278;2023-08-07T06:32:57;1.98;;;1.85;;
6131;SDS011;3097;42.692;23.278;2023-08-07T06:35:23;2.30;;;2.20;;
6131;SDS011;3097;42.692;23.278;2023-08-07T06:37:48;2.05;;;1.95;;
6131;SDS011;3097;42.692;23.278;2023-08-07T06:40:14;2.92;;;2.72;;
6131;SDS011;3097;42.692;23.278;2023-08-07T06:42:39;3.28;;;1.70;;
6131;SDS011;3097;42.692;23.278;2023-08-07T06:45:05;1.38;;;1.33;;
6131;SDS011;3097;42.692;23.278;2023-08-07T06:47:31;1.80;;;1.70;;
6131;SDS011;3097;42.692;23.278;2023-08-07T06:49:57;1.17;;;1.15;;
6131;SDS011;3097;42.692;23.278;2023-08-07T06:52:22;2.75;;;1.15;;
6131;SDS011;3097;42.692;23.278;2023-08-07T06:54:48;1.35;;;1.35;;
6131;SDS011;3097;42.692;23.278;2023-08-07T06:57:14;1.30;;;1.30;;
6131;SDS011;3097;42.692;23.278;2023-08-07T06:59:40;1.50;;;1.40;;
6131;SDS011;3097;42.692;23.278;2023-08-07T07:02:06;1.50;;;1.40;;
6131;SDS011;3097;42.692;23.278;2023-08-07T07:04:31;1.70;;;1.60;;
6131;SDS011;3097;42.692;23.278;2023-08-07T07:06:58;1.40;;;1.40;;
6131;SDS011;3097;42.692;23.278;2023-08-07T07:09:23;1.40;;;1.40;;
6131;SDS011;3097;42.692;23.278;2023-08-07T07:11:49;1.53;;;1.53;;
6131;SDS011;3097;42.692;23.278;2023-08-07T07:14:14;1.70;;;1.60;;
6131;SDS011;3097;42.692;23.278;2023-08-07T07:16:40;1.40;;;1.40;;
6131;SDS011;3097;42.692;23.278;2023-08-07T07:19:07;1.80;;;1.60;;
6131;SDS011;3097;42.692;23.278;2023-08-07T07:21:34;1.40;;;1.30;;
6131;SDS011;3097;42.692;23.278;2023-08-07T07:24:00;1.80;;;1.70;;
6131;SDS011;3097;42.692;23.278;2023-08-07T07:26:26;3.20;;;3.00;;
6131;SDS011;3097;42.692;23.278;2023-08-07T07:28:52;3.00;;;2.80;;
6131;SDS011;3097;42.692;23.278;2023-08-07T07:31:18;1.80;;;1.70;;
6131;SDS011;3097;42.692;23.278;2023-08-07T07:33:43;1.70;;;1.60;;
6131;SDS011;3097;42.692;23.278;2023-08-07T07:36:15;1.97;;;1.87;;
6131;SDS011;3097;42.692;23.278;2023-08-07T07:38:42;2.10;;;2.00;;
6131;SDS011;3097;42.692;23.278;2023-08-07T07:41:08;1.57;;;1.47;;
6131;SDS011;3097;42.692;23.278;2023-08-07T07:43:36;1.60;;;1.50;;
6131;SDS011;3097;42.692;23.278;2023-08-07T07:46:02;1.53;;;1.43;;
6131;SDS011;3097;42.692;23.278;2023-08-07T07:48:28;1.97;;;1.87;;
6131;SDS011;3097;42.692;23.278;2023-08-07T07:51:03;1.60;;;1.50;;
6131;SDS011;3097;42.692;23.278;2023-08-07T07:53:29;2.40;;;2.30;;
6131;SDS011;3097;42.692;23.278;2023-08-07T07:55:57;4.57;;;4.27;;
6131;SDS011;3097;42.692;23.278;2023-08-07T07:58:23;3.33;;;2.50;;
6131;SDS011;3097;42.692;23.278;2023-08-07T08:00:49;6.37;;;2.50;;
6131;SDS011;3097;42.692;23.278;2023-08-07T08:03:14;2.03;;;1.93;;
6131;SDS011;3097;42.692;23.278;2023-08-07T08:05:40;1.90;;;1.80;;
6131;SDS011;3097;42.692;23.278;2023-08-07T08:08:06;1.60;;;1.50;;
6131;SDS011;3097;42.692;23.278;2023-08-07T08:10:35;1.70;;;1.60;;
6131;SDS011;3097;42.692;23.278;2023-08-07T08:13:01;2.10;;;1.67;;
6131;SDS011;3097;42.692;23.278;2023-08-07T08:15:29;1.80;;;1.70;;
6131;SDS011;3097;42.692;23.278;2023-08-07T08:17:54;1.73;;;1.47;;
6131;SDS011;3097;42.692;23.278;2023-08-07T08:20:20;1.60;;;1.50;;
6131;SDS011;3097;42.692;23.278;2023-08-07T08:22:45;1.60;;;1.40;;
6131;SDS011;3097;42.692;23.278;2023-08-07T08:25:14;1.90;;;1.80;;
6131;SDS011;3097;42.692;23.278;2023-08-07T08:27:40;2.07;;;1.80;;
6131;SDS011;3097;42.692;23.278;2023-08-07T08:30:06;1.97;;;1.70;;
6131;SDS011;3097;42.692;23.278;2023-08-07T08:32:32;1.50;;;1.47;;
6131;SDS011;3097;42.692;23.278;2023-08-07T08:34:57;1.90;;;1.60;;
6131;SDS011;3097;42.692;23.278;2023-08-07T08:37:23;1.83;;;1.73;;
6131;SDS011;3097;42.692;23.278;2023-08-07T08:39:49;1.50;;;1.50;;
6131;SDS011;3097;42.692;23.278;2023-08-07T08:42:15;1.47;;;1.40;;
6131;SDS011;3097;42.692;23.278;2023-08-07T08:45:02;1.30;;;1.20;;
6131;SDS011;3097;42.692;23.278;2023-08-07T08:47:29;1.97;;;1.87;;
6131;SDS011;3097;42.692;23.278;2023-08-07T08:52:41;1.57;;;1.50;;
6131;SDS011;3097;42.692;23.278;2023-08-07T08:55:09;1.50;;;1.40;;
6131;SDS011;3097;42.692;23.278;2023-08-07T08:57:38;1.50;;;1.40;;
6131;SDS011;3097;42.692;23.278;2023-08-07T09:00:06;2.27;;;1.77;;
6131;SDS011;3097;42.692;23.278;2023-08-07T09:02:43;1.87;;;1.77;;
6131;SDS011;3097;42.692;23.278;2023-08-07T09:05:15;1.23;;;1.23;;
6131;SDS011;3097;42.692;23.278;2023-08-07T09:07:42;1.40;;;1.40;;
6131;SDS011;3097;42.692;23.278;2023-08-07T09:10:09;1.60;;;1.50;;
6131;SDS011;3097;42.692;23.278;2023-08-07T09:12:40;2.10;;;2.00;;
6131;SDS011;3097;42.692;23.278;2023-08-07T09:15:08;2.43;;;1.43;;
6131;SDS011;3097;42.692;23.278;2023-08-07T09:17:38;1.80;;;1.70;;
6131;SDS011;3097;42.692;23.278;2023-08-07T09:20:08;1.70;;;1.60;;
6131;SDS011;3097;42.692;23.278;2023-08-07T09:22:41;2.13;;;2.03;;
6131;SDS011;3097;42.692;23.278;2023-08-07T09:25:07;2.03;;;1.93;;
6131;SDS011;3097;42.692;23.278;2023-08-07T09:27:36;1.80;;;1.70;;
6131;SDS011;3097;42.692;23.278;2023-08-07T09:30:04;1.63;;;1.57;;
6131;SDS011;3097;42.692;23.278;2023-08-07T09:32:31;1.53;;;1.43;;
6131;SDS011;3097;42.692;23.278;2023-08-07T09:34:56;2.20;;;2.10;;
6131;SDS011;3097;42.692;23.278;2023-08-07T09:37:23;1.80;;;1.70;;
6131;SDS011;3097;42.692;23.278;2023-08-07T09:39:48;1.90;;;1.80;;
6131;SDS011;3097;42.692;23.278;2023-08-07T09:42:14;1.40;;;1.40;;
6131;SDS011;3097;42.692;23.278;2023-08-07T09:44:41;1.93;;;1.83;;
6131;SDS011;3097;42.692;23.278;2023-08-07T09:47:13;1.83;;;1.73;;
6131;SDS011;3097;42.692;23.278;2023-08-07T09:49:40;1.70;;;1.67;;
6131;SDS011;3097;42.692;23.278;2023-08-07T09:52:06;1.90;;;1.80;;
6131;SDS011;3097;42.692;23.278;2023-08-07T09:54:34;1.47;;;1.47;;
6131;SDS011;3097;42.692;23.278;2023-08-07T09:57:03;1.80;;;1.70;;
6131;SDS011;3097;42.692;23.278;2023-08-07T09:59:33;1.87;;;1.77;;
6131;SDS011;3097;42.692;23.278;2023-08-07T10:02:00;1.90;;;1.80;;
6131;SDS011;3097;42.692;23.278;2023-08-07T10:04:30;1.90;;;1.80;;
6131;SDS011;3097;42.692;23.278;2023-08-07T10:06:56;1.53;;;1.43;;
6131;SDS011;3097;42.692;23.278;2023-08-07T10:09:26;1.70;;;1.60;;
6131;SDS011;3097;42.692;23.278;2023-08-07T10:11:53;2.93;;;1.90;;
6131;SDS011;3097;42.692;23.278;2023-08-07T10:14:20;1.70;;;1.60;;
6131;SDS011;3097;42.692;23.278;2023-08-07T10:16:47;2.57;;;2.37;;
6131;SDS011;3097;42.692;23.278;2023-08-07T10:19:17;2.13;;;2.03;;
6131;SDS011;3097;42.692;23.278;2023-08-07T10:21:43;2.00;;;1.90;;
6131;SDS011;3097;42.692;23.278;2023-08-07T10:24:10;2.57;;;1.80;;
6131;SDS011;3097;42.692;23.278;2023-08-07T10:26:39;1.80;;;1.70;;
6131;SDS011;3097;42.692;23.278;2023-08-07T10:29:11;3.30;;;1.90;;
6131;SDS011;3097;42.692;23.278;2023-08-07T10:31:42;1.60;;;1.60;;
6131;SDS011;3097;42.692;23.278;2023-08-07T10:34:13;2.10;;;2.00;;
6131;SDS011;3097;42.692;23.278;2023-08-07T10:36:39;1.90;;;1.80;;
6131;SDS011;3097;42.692;23.278;2023-08-07T10:39:06;1.63;;;1.60;;
6131;SDS011;3097;42.692;23.278;2023-08-07T10:41:45;1.70;;;1.60;;
6131;SDS011;3097;42.692;23.278;2023-08-07T10:44:21;1.53;;;1.47;;
6131;SDS011;3097;42.692;23.278;2023-08-07T10:46:49;1.73;;;1.63;;
6131;SDS011;3097;42.692;23.278;2023-08-07T10:49:33;2.70;;;1.57;;
6131;SDS011;3097;42.692;23.278;2023-08-07T10:54:54;2.10;;;1.70;;
6131;SDS011;3097;42.692;23.278;2023-08-07T10:57:20;1.77;;;1.67;;
6131;SDS011;3097;42.692;23.278;2023-08-07T11:02:25;1.93;;;1.83;;
6131;SDS011;3097;42.692;23.278;2023-08-07T11:04:52;1.90;;;1.80;;
6131;SDS011;3097;42.692;23.278;2023-08-07T11:07:27;1.90;;;1.80;;
6131;SDS011;3097;42.692;23.278;2023-08-07T11:09:54;2.20;;;2.10;;
6131;SDS011;3097;42.692;23.278;2023-08-07T11:12:20;2.37;;;2.10;;
6131;SDS011;3097;42.692;23.278;2023-08-07T11:14:46;1.93;;;1.83;;
6131;SDS011;3097;42.692;23.278;2023-08-07T11:17:12;2.60;;;2.03;;
6131;SDS011;3097;42.692;23.278;2023-08-07T11:19:38;2.73;;;1.97;;
6131;SDS011;3097;42.692;23.278;2023-08-07T11:22:03;2.10;;;2.00;;
6131;SDS011;3097;42.692;23.278;2023-08-07T11:24:29;1.87;;;1.77;;
6131;SDS011;3097;42.692;23.278;2023-08-07T11:26:55;2.07;;;1.90;;
6131;SDS011;3097;42.692;23.278;2023-08-07T11:29:21;2.00;;;1.90;;
6131;SDS011;3097;42.692;23.278;2023-08-07T11:31:49;2.10;;;2.00;;
6131;SDS011;3097;42.692;23.278;2023-08-07T11:34:18;1.60;;;1.60;;
6131;SDS011;3097;42.692;23.278;2023-08-07T11:36:44;1.90;;;1.80;;
6131;SDS011;3097;42.692;23.278;2023-08-07T11:39:10;2.37;;;1.30;;
6131;SDS011;3097;42.692;23.278;2023-08-07T11:41:36;2.10;;;2.00;;
6131;SDS011;3097;42.692;23.278;2023-08-07T11:44:02;2.17;;;2.07;;
6131;SDS011;3097;42.692;23.278;2023-08-07T11:46:27;2.00;;;1.90;;
6131;SDS011;3097;42.692;23.278;2023-08-07T11:48:54;1.80;;;1.70;;
6131;SDS011;3097;42.692;23.278;2023-08-07T11:51:21;1.80;;;1.70;;
6131;SDS011;3097;42.692;23.278;2023-08-07T11:53:47;1.80;;;1.70;;
6131;SDS011;3097;42.692;23.278;2023-08-07T11:56:13;1.93;;;1.83;;
6131;SDS011;3097;42.692;23.278;2023-08-07T11:58:46;2.10;;;2.00;;
6131;SDS011;3097;42.692;23.278;2023-08-07T12:01:18;2.10;;;2.00;;
6131;SDS011;3097;42.692;23.278;2023-08-07T12:06:18;2.30;;;1.80;;
6131;SDS011;3097;42.692;23.278;2023-08-07T12:08:43;1.83;;;1.73;;
6131;SDS011;3097;42.692;23.278;2023-08-07T12:11:10;1.80;;;1.70;;
6131;SDS011;3097;42.692;23.278;2023-08-07T12:13:40;1.90;;;1.80;;
6131;SDS011;3097;42.692;23.278;2023-08-07T12:16:07;2.20;;;2.00;;
6131;SDS011;3097;42.692;23.278;2023-08-07T12:18:34;2.03;;;1.70;;
6131;SDS011;3097;42.692;23.278;2023-08-07T12:21:01;1.90;;;1.80;;
6131;SDS011;3097;42.692;23.278;2023-08-07T12:23:34;1.80;;;1.70;;
6131;SDS011;3097;42.692;23.278;2023-08-07T12:26:01;1.80;;;1.70;;
6131;SDS011;3097;42.692;23.278;2023-08-07T12:28:27;1.83;;;1.73;;
6131;SDS011;3097;42.692;23.278;2023-08-07T12:30:53;1.97;;;1.87;;
6131;SDS011;3097;42.692;23.278;2023-08-07T12:33:18;2.83;;;1.73;;
6131;SDS011;3097;42.692;23.278;2023-08-07T12:35:44;1.93;;;1.83;;
6131;SDS011;3097;42.692;23.278;2023-08-07T12:38:10;2.13;;;2.03;;
6131;SDS011;3097;42.692;23.278;2023-08-07T12:40:39;3.17;;;1.83;;
6131;SDS011;3097;42.692;23.278;2023-08-07T12:43:04;2.23;;;1.97;;
6131;SDS011;3097;42.692;23.278;2023-08-07T12:45:30;3.37;;;3.10;;
6131;SDS011;3097;42.692;23.278;2023-08-07T12:47:56;3.60;;;3.30;;
6131;SDS011;3097;42.692;23.278;2023-08-07T12:50:21;2.20;;;2.00;;
6131;SDS011;3097;42.692;23.278;2023-08-07T12:52:46;2.10;;;1.87;;
6131;SDS011;3097;42.692;23.278;2023-08-07T12:55:12;2.50;;;2.27;;
6131;SDS011;3097;42.692;23.278;2023-08-07T12:57:39;2.23;;;2.00;;
6131;SDS011;3097;42.692;23.278;2023-08-07T13:00:06;2.70;;;2.50;;
6131;SDS011;3097;42.692;23.278;2023-08-07T13:02:33;4.93;;;2.37;;
6131;SDS011;3097;42.692;23.278;2023-08-07T13:04:59;2.07;;;1.97;;
6131;SDS011;3097;42.692;23.278;2023-08-07T13:07:24;2.80;;;2.20;;
6131;SDS011;3097;42.692;23.278;2023-08-07T13:09:50;2.10;;;2.00;;
6131;SDS011;3097;42.692;23.278;2023-08-07T13:12:16;4.43;;;2.07;;
6131;SDS011;3097;42.692;23.278;2023-08-07T13:14:41;2.23;;;2.10;;
6131;SDS011;3097;42.692;23.278;2023-08-07T13:17:06;2.80;;;1.83;;
6131;SDS011;3097;42.692;23.278;2023-08-07T13:19:32;2.80;;;2.20;;
6131;SDS011;3097;42.692;23.278;2023-08-07T13:21:57;1.90;;;1.80;;
6131;SDS011;3097;42.692;23.278;2023-08-07T13:24:23;2.60;;;2.40;;
6131;SDS011;3097;42.692;23.278;2023-08-07T13:26:49;1.93;;;1.83;;
6131;SDS011;3097;42.692;23.278;2023-08-07T13:29:15;2.00;;;1.80;;
6131;SDS011;3097;42.692;23.278;2023-08-07T13:31:40;1.87;;;1.77;;
6131;SDS011;3097;42.692;23.278;2023-08-07T13:34:12;4.30;;;1.70;;
6131;SDS011;3097;42.692;23.278;2023-08-07T13:36:37;2.07;;;1.97;;
6131;SDS011;3097;42.692;23.278;2023-08-07T13:39:06;2.03;;;1.93;;
6131;SDS011;3097;42.692;23.278;2023-08-07T13:41:32;2.83;;;1.90;;
6131;SDS011;3097;42.692;23.278;2023-08-07T13:43:58;2.00;;;1.90;;
6131;SDS011;3097;42.692;23.278;2023-08-07T13:46:23;1.83;;;1.73;;
6131;SDS011;3097;42.692;23.278;2023-08-07T13:48:49;2.13;;;2.03;;
6131;SDS011;3097;42.692;23.278;2023-08-07T13:51:15;2.00;;;1.90;;
6131;SDS011;3097;42.692;23.278;2023-08-07T13:53:41;2.00;;;1.90;;
6131;SDS011;3097;42.692;23.278;2023-08-07T13:56:07;2.03;;;1.70;;
6131;SDS011;3097;42.692;23.278;2023-08-07T13:58:34;2.10;;;2.00;;
6131;SDS011;3097;42.692;23.278;2023-08-07T14:00:59;2.10;;;2.00;;
6131;SDS011;3097;42.692;23.278;2023-08-07T14:03:25;2.10;;;2.00;;
6131;SDS011;3097;42.692;23.278;2023-08-07T14:05:50;1.97;;;1.87;;
6131;SDS011;3097;42.692;23.278;2023-08-07T14:08:16;1.77;;;1.67;;
6131;SDS011;3097;42.692;23.278;2023-08-07T14:10:42;2.10;;;2.00;;
6131;SDS011;3097;42.692;23.278;2023-08-07T14:13:07;2.10;;;2.00;;
6131;SDS011;3097;42.692;23.278;2023-08-07T14:15:34;1.97;;;1.87;;
6131;SDS011;3097;42.692;23.278;2023-08-07T14:18:00;2.03;;;1.87;;
6131;SDS011;3097;42.692;23.278;2023-08-07T14:20:25;2.20;;;2.10;;
6131;SDS011;3097;42.692;23.278;2023-08-07T14:22:51;2.07;;;1.97;;
6131;SDS011;3097;42.692;23.278;2023-08-07T14:25:16;1.90;;;1.80;;
6131;SDS011;3097;42.692;23.278;2023-08-07T14:27:42;2.10;;;1.90;;
6131;SDS011;3097;42.692;23.278;2023-08-07T14:30:07;2.07;;;1.97;;
6131;SDS011;3097;42.692;23.278;2023-08-07T14:32:33;2.17;;;2.00;;
6131;SDS011;3097;42.692;23.278;2023-08-07T14:34:58;2.07;;;1.97;;
6131;SDS011;3097;42.692;23.278;2023-08-07T14:37:24;1.97;;;1.87;;
6131;SDS011;3097;42.692;23.278;2023-08-07T14:39:49;2.07;;;1.97;;
6131;SDS011;3097;42.692;23.278;2023-08-07T14:42:15;3.30;;;3.00;;
6131;SDS011;3097;42.692;23.278;2023-08-07T14:44:41;3.20;;;2.90;;
6131;SDS011;3097;42.692;23.278;2023-08-07T14:47:06;4.70;;;4.30;;
6131;SDS011;3097;42.692;23.278;2023-08-07T14:49:31;3.83;;;3.40;;
6131;SDS011;3097;42.692;23.278;2023-08-07T14:51:57;2.80;;;1.97;;
6131;SDS011;3097;42.692;23.278;2023-08-07T14:54:22;1.90;;;1.80;;
6131;SDS011;3097;42.692;23.278;2023-08-07T14:56:48;2.07;;;1.97;;
6131;SDS011;3097;42.692;23.278;2023-08-07T14:59:14;2.63;;;2.00;;
6131;SDS011;3097;42.692;23.278;2023-08-07T15:01:40;2.00;;;1.90;;
6131;SDS011;3097;42.692;23.278;2023-08-07T15:04:05;2.30;;;2.00;;
6131;SDS011;3097;42.692;23.278;2023-08-07T15:06:30;2.80;;;2.40;;
6131;SDS011;3097;42.692;23.278;2023-08-07T15:08:56;2.60;;;2.20;;
6131;SDS011;3097;42.692;23.278;2023-08-07T15:11:22;2.00;;;1.90;;